sensor_id;sensor_type;location;lat;lon;timestamp;P1;durP1;ratioP1;P2;durP2;ratioP2
38085;SDS011;23896;50.678;10.924;2023-05-20T00:00:16;9.68;;;6.38;;
38085;SDS011;23896;50.678;10.924;2023-05-20T00:02:48;8.57;;;5.93;;
38085;SDS011;23896;50.678;10.924;2023-05-20T00:14:47;7.07;;;5.60;;
38085;SDS011;23896;50.678;10.924;2023-05-20T00:20:45;10.55;;;6.53;;
38085;SDS011;23896;50.678;10.924;2023-05-20T00:23:53;7.32;;;5.95;;
38085;SDS011;23896;50.678;10.924;2023-05-20T00:53:26;6.57;;;5.80;;
38085;SDS011;23896;50.678;10.924;2023-05-20T00:55:53;8.10;;;6.57;;
38085;SDS011;23896;50.678;10.924;2023-05-20T00:58:19;7.70;;;6.32;;
38085;SDS011;23896;50.678;10.924;2023-05-20T01:00:45;10.35;;;6.25;;
38085;SDS011;23896;50.678;10.924;2023-05-20T01:03:17;7.43;;;6.72;;
38085;SDS011;23896;50.678;10.924;2023-05-20T01:36:53;9.52;;;6.78;;
38085;SDS011;23896;50.678;10.924;2023-05-20T02:00:17;7.53;;;6.72;;
38085;SDS011;23896;50.678;10.924;2023-05-20T02:02:43;6.55;;;5.95;;
38085;SDS011;23896;50.678;10.924;2023-05-20T02:05:09;9.38;;;6.32;;
38085;SDS011;23896;50.678;10.924;2023-05-20T02:10:11;6.93;;;5.80;;
38085;SDS011;23896;50.678;10.924;2023-05-20T02:12:37;6.93;;;6.20;;
38085;SDS011;23896;50.678;10.924;2023-05-20T02:15:04;9.93;;;6.70;;
38085;SDS011;23896;50.678;10.924;2023-05-20T02:17:30;7.05;;;6.35;;
38085;SDS011;23896;50.678;10.924;2023-05-20T02:20:00;9.82;;;6.22;;
38085;SDS011;23896;50.678;10.924;2023-05-20T02:22:29;8.00;;;6.75;;
38085;SDS011;23896;50.678;10.924;2023-05-20T02:35:19;10.98;;;7.55;;
38085;SDS011;23896;50.678;10.924;2023-05-20T02:37:48;8.40;;;7.07;;
38085;SDS011;23896;50.678;10.924;2023-05-20T02:40:14;8.30;;;7.50;;
38085;SDS011;23896;50.678;10.924;2023-05-20T02:45:45;10.93;;;7.93;;
38085;SDS011;23896;50.678;10.924;2023-05-20T02:48:11;8.80;;;7.90;;
38085;SDS011;23896;50.678;10.924;2023-05-20T02:50:38;10.50;;;7.68;;
38085;SDS011;23896;50.678;10.924;2023-05-20T02:53:04;13.05;;;8.20;;
38085;SDS011;23896;50.678;10.924;2023-05-20T02:55:34;11.43;;;8.60;;
38085;SDS011;23896;50.678;10.924;2023-05-20T02:58:01;9.32;;;7.97;;
38085;SDS011;23896;50.678;10.924;2023-05-20T03:00:28;9.50;;;8.50;;
38085;SDS011;23896;50.678;10.924;2023-05-20T03:31:29;13.00;;;10.25;;
38085;SDS011;23896;50.678;10.924;2023-05-20T03:54:41;13.90;;;11.75;;
38085;SDS011;23896;50.678;10.924;2023-05-20T03:57:07;12.93;;;11.50;;
38085;SDS011;23896;50.678;10.924;2023-05-20T04:02:10;16.95;;;11.63;;
38085;SDS011;23896;50.678;10.924;2023-05-20T04:04:36;13.38;;;11.98;;
38085;SDS011;23896;50.678;10.924;2023-05-20T04:41:41;19.17;;;13.68;;
38085;SDS011;23896;50.678;10.924;2023-05-20T04:44:08;17.52;;;14.50;;
38085;SDS011;23896;50.678;10.924;2023-05-20T05:17:44;17.48;;;14.63;;
38085;SDS011;23896;50.678;10.924;2023-05-20T05:20:10;16.80;;;14.05;;
38085;SDS011;23896;50.678;10.924;2023-05-20T05:22:36;17.00;;;14.10;;
38085;SDS011;23896;50.678;10.924;2023-05-20T05:27:58;17.75;;;14.63;;
38085;SDS011;23896;50.678;10.924;2023-05-20T05:30:24;19.83;;;15.43;;
38085;SDS011;23896;50.678;10.924;2023-05-20T05:38:58;18.57;;;14.80;;
38085;SDS011;23896;50.678;10.924;2023-05-20T05:41:24;16.60;;;14.80;;
38085;SDS011;23896;50.678;10.924;2023-05-20T06:17:33;20.02;;;15.85;;
38085;SDS011;23896;50.678;10.924;2023-05-20T06:19:59;17.75;;;15.85;;
38085;SDS011;23896;50.678;10.924;2023-05-20T06:22:26;18.77;;;15.52;;
38085;SDS011;23896;50.678;10.924;2023-05-20T06:39:42;21.13;;;17.00;;
38085;SDS011;23896;50.678;10.924;2023-05-20T06:42:08;17.50;;;15.32;;
38085;SDS011;23896;50.678;10.924;2023-05-20T06:47:23;20.95;;;16.58;;
38085;SDS011;23896;50.678;10.924;2023-05-20T06:49:49;21.85;;;16.27;;
38085;SDS011;23896;50.678;10.924;2023-05-20T08:13:18;27.83;;;18.90;;
38085;SDS011;23896;50.678;10.924;2023-05-20T08:15:44;27.73;;;18.67;;
38085;SDS011;23896;50.678;10.924;2023-05-20T08:40:19;26.10;;;17.65;;
38085;SDS011;23896;50.678;10.924;2023-05-20T08:42:49;21.20;;;17.80;;
38085;SDS011;23896;50.678;10.924;2023-05-20T08:58:52;24.70;;;17.60;;
38085;SDS011;23896;50.678;10.924;2023-05-20T09:04:53;21.00;;;17.58;;
38085;SDS011;23896;50.678;10.924;2023-05-20T09:07:26;21.08;;;17.55;;
38085;SDS011;23896;50.678;10.924;2023-05-20T09:09:55;21.27;;;17.48;;
38085;SDS011;23896;50.678;10.924;2023-05-20T09:12:23;20.33;;;17.42;;
38085;SDS011;23896;50.678;10.924;2023-05-20T09:14:52;21.52;;;17.33;;
38085;SDS011;23896;50.678;10.924;2023-05-20T09:17:24;20.95;;;18.00;;
38085;SDS011;23896;50.678;10.924;2023-05-20T09:26:13;22.70;;;17.33;;
38085;SDS011;23896;50.678;10.924;2023-05-20T09:28:39;21.83;;;17.67;;
38085;SDS011;23896;50.678;10.924;2023-05-20T09:31:06;22.73;;;17.08;;
38085;SDS011;23896;50.678;10.924;2023-05-20T09:48:37;20.08;;;17.98;;
38085;SDS011;23896;50.678;10.924;2023-05-20T09:51:11;20.65;;;17.10;;
38085;SDS011;23896;50.678;10.924;2023-05-20T09:56:42;22.60;;;18.35;;
38085;SDS011;23896;50.678;10.924;2023-05-20T09:59:09;20.55;;;17.50;;
38085;SDS011;23896;50.678;10.924;2023-05-20T10:01:35;21.88;;;17.77;;
38085;SDS011;23896;50.678;10.924;2023-05-20T10:04:03;30.27;;;18.75;;
38085;SDS011;23896;50.678;10.924;2023-05-20T10:06:42;20.75;;;18.60;;
38085;SDS011;23896;50.678;10.924;2023-05-20T10:09:31;19.50;;;17.40;;
38085;SDS011;23896;50.678;10.924;2023-05-20T10:12:05;21.98;;;17.20;;
38085;SDS011;23896;50.678;10.924;2023-05-20T10:14:39;20.65;;;15.98;;
38085;SDS011;23896;50.678;10.924;2023-05-20T10:17:16;18.95;;;16.90;;
38085;SDS011;23896;50.678;10.924;2023-05-20T10:19:57;20.80;;;17.10;;
38085;SDS011;23896;50.678;10.924;2023-05-20T10:22:26;21.25;;;17.33;;
38085;SDS011;23896;50.678;10.924;2023-05-20T10:24:57;19.85;;;17.40;;
38085;SDS011;23896;50.678;10.924;2023-05-20T10:27:27;22.02;;;17.23;;
38085;SDS011;23896;50.678;10.924;2023-05-20T10:29:57;22.25;;;17.08;;
38085;SDS011;23896;50.678;10.924;2023-05-20T10:32:27;20.17;;;17.00;;
38085;SDS011;23896;50.678;10.924;2023-05-20T10:34:58;21.02;;;17.20;;
38085;SDS011;23896;50.678;10.924;2023-05-20T10:37:27;22.08;;;18.27;;
38085;SDS011;23896;50.678;10.924;2023-05-20T10:40:05;19.73;;;17.48;;
38085;SDS011;23896;50.678;10.924;2023-05-20T10:42:38;18.90;;;16.40;;
38085;SDS011;23896;50.678;10.924;2023-05-20T10:45:05;20.35;;;17.23;;
38085;SDS011;23896;50.678;10.924;2023-05-20T10:50:35;18.02;;;15.65;;
38085;SDS011;23896;50.678;10.924;2023-05-20T11:04:22;22.55;;;17.77;;
38085;SDS011;23896;50.678;10.924;2023-05-20T11:14:33;21.67;;;16.30;;
38085;SDS011;23896;50.678;10.924;2023-05-20T11:17:00;23.35;;;16.77;;
38085;SDS011;23896;50.678;10.924;2023-05-20T11:19:29;19.33;;;17.27;;
38085;SDS011;23896;50.678;10.924;2023-05-20T11:21:55;20.50;;;17.63;;
38085;SDS011;23896;50.678;10.924;2023-05-20T11:24:22;19.35;;;15.60;;
38085;SDS011;23896;50.678;10.924;2023-05-20T11:26:50;18.42;;;16.08;;
38085;SDS011;23896;50.678;10.924;2023-05-20T11:29:22;20.50;;;17.02;;
38085;SDS011;23896;50.678;10.924;2023-05-20T11:31:48;20.90;;;17.45;;
38085;SDS011;23896;50.678;10.924;2023-05-20T11:34:20;23.33;;;17.27;;
38085;SDS011;23896;50.678;10.924;2023-05-20T11:36:47;20.83;;;17.23;;
38085;SDS011;23896;50.678;10.924;2023-05-20T11:39:19;19.15;;;17.15;;
38085;SDS011;23896;50.678;10.924;2023-05-20T11:42:03;23.52;;;16.92;;
38085;SDS011;23896;50.678;10.924;2023-05-20T11:44:31;23.20;;;17.90;;
38085;SDS011;23896;50.678;10.924;2023-05-20T11:46:58;19.73;;;17.42;;
38085;SDS011;23896;50.678;10.924;2023-05-20T11:49:38;21.05;;;17.30;;
38085;SDS011;23896;50.678;10.924;2023-05-20T11:52:06;20.33;;;18.13;;
38085;SDS011;23896;50.678;10.924;2023-05-20T11:54:36;22.77;;;18.63;;
38085;SDS011;23896;50.678;10.924;2023-05-20T11:57:06;23.55;;;18.23;;
38085;SDS011;23896;50.678;10.924;2023-05-20T11:59:39;23.45;;;16.92;;
38085;SDS011;23896;50.678;10.924;2023-05-20T12:02:07;20.83;;;17.65;;
38085;SDS011;23896;50.678;10.924;2023-05-20T12:04:39;21.58;;;17.02;;
38085;SDS011;23896;50.678;10.924;2023-05-20T12:07:09;21.88;;;17.45;;
38085;SDS011;23896;50.678;10.924;2023-05-20T12:09:55;22.80;;;18.27;;
38085;SDS011;23896;50.678;10.924;2023-05-20T12:12:22;19.20;;;16.90;;
38085;SDS011;23896;50.678;10.924;2023-05-20T12:14:50;20.80;;;17.55;;
38085;SDS011;23896;50.678;10.924;2023-05-20T12:17:19;20.85;;;16.95;;
38085;SDS011;23896;50.678;10.924;2023-05-20T12:19:57;19.85;;;17.15;;
38085;SDS011;23896;50.678;10.924;2023-05-20T12:22:23;20.65;;;17.85;;
38085;SDS011;23896;50.678;10.924;2023-05-20T12:25:07;20.13;;;17.92;;
38085;SDS011;23896;50.678;10.924;2023-05-20T12:36:26;22.15;;;18.90;;
38085;SDS011;23896;50.678;10.924;2023-05-20T12:38:59;19.00;;;17.02;;
38085;SDS011;23896;50.678;10.924;2023-05-20T12:41:35;24.83;;;18.20;;
38085;SDS011;23896;50.678;10.924;2023-05-20T12:44:04;29.33;;;23.75;;
38085;SDS011;23896;50.678;10.924;2023-05-20T12:46:43;31.88;;;26.67;;
38085;SDS011;23896;50.678;10.924;2023-05-20T12:49:28;23.35;;;19.23;;
38085;SDS011;23896;50.678;10.924;2023-05-20T12:52:04;22.63;;;17.92;;
38085;SDS011;23896;50.678;10.924;2023-05-20T12:54:42;23.42;;;19.27;;
38085;SDS011;23896;50.678;10.924;2023-05-20T12:57:09;21.88;;;18.30;;
38085;SDS011;23896;50.678;10.924;2023-05-20T12:59:44;21.85;;;19.17;;
38085;SDS011;23896;50.678;10.924;2023-05-20T13:02:11;23.20;;;18.48;;
38085;SDS011;23896;50.678;10.924;2023-05-20T13:04:46;19.23;;;17.23;;
38085;SDS011;23896;50.678;10.924;2023-05-20T13:07:13;21.05;;;17.60;;
38085;SDS011;23896;50.678;10.924;2023-05-20T13:09:55;23.40;;;19.77;;
38085;SDS011;23896;50.678;10.924;2023-05-20T13:12:27;21.08;;;17.45;;
38085;SDS011;23896;50.678;10.924;2023-05-20T13:14:54;21.30;;;17.85;;
38085;SDS011;23896;50.678;10.924;2023-05-20T13:17:21;21.13;;;17.33;;
38085;SDS011;23896;50.678;10.924;2023-05-20T13:19:52;19.63;;;17.63;;
38085;SDS011;23896;50.678;10.924;2023-05-20T13:22:24;20.23;;;17.50;;
38085;SDS011;23896;50.678;10.924;2023-05-20T13:25:16;21.25;;;17.90;;
38085;SDS011;23896;50.678;10.924;2023-05-20T13:27:54;21.40;;;17.25;;
38085;SDS011;23896;50.678;10.924;2023-05-20T13:30:28;21.38;;;19.05;;
38085;SDS011;23896;50.678;10.924;2023-05-20T13:33:09;21.77;;;18.08;;
38085;SDS011;23896;50.678;10.924;2023-05-20T13:35:36;20.10;;;17.00;;
38085;SDS011;23896;50.678;10.924;2023-05-20T13:38:07;19.95;;;17.65;;
38085;SDS011;23896;50.678;10.924;2023-05-20T13:40:43;20.33;;;17.70;;
38085;SDS011;23896;50.678;10.924;2023-05-20T13:43:32;20.00;;;17.58;;
38085;SDS011;23896;50.678;10.924;2023-05-20T13:46:09;20.95;;;17.55;;
38085;SDS011;23896;50.678;10.924;2023-05-20T13:48:46;21.50;;;17.95;;
38085;SDS011;23896;50.678;10.924;2023-05-20T13:51:16;21.67;;;17.20;;
38085;SDS011;23896;50.678;10.924;2023-05-20T13:53:58;20.48;;;17.92;;
38085;SDS011;23896;50.678;10.924;2023-05-20T13:56:26;21.45;;;18.17;;
38085;SDS011;23896;50.678;10.924;2023-05-20T13:58:55;21.20;;;18.88;;
38085;SDS011;23896;50.678;10.924;2023-05-20T14:01:30;23.52;;;18.27;;
38085;SDS011;23896;50.678;10.924;2023-05-20T14:04:03;19.33;;;17.08;;
38085;SDS011;23896;50.678;10.924;2023-05-20T14:06:39;22.83;;;18.52;;
38085;SDS011;23896;50.678;10.924;2023-05-20T14:12:52;20.05;;;17.17;;
38085;SDS011;23896;50.678;10.924;2023-05-20T14:18:19;24.13;;;18.95;;
38085;SDS011;23896;50.678;10.924;2023-05-20T14:21:11;25.35;;;20.33;;
38085;SDS011;23896;50.678;10.924;2023-05-20T14:27:20;22.88;;;19.27;;
38085;SDS011;23896;50.678;10.924;2023-05-20T14:43:37;23.20;;;19.92;;
38085;SDS011;23896;50.678;10.924;2023-05-20T14:46:26;24.13;;;19.70;;
38085;SDS011;23896;50.678;10.924;2023-05-20T14:55:11;23.08;;;18.65;;
38085;SDS011;23896;50.678;10.924;2023-05-20T14:58:04;27.42;;;19.88;;
38085;SDS011;23896;50.678;10.924;2023-05-20T15:00:46;23.90;;;20.25;;
38085;SDS011;23896;50.678;10.924;2023-05-20T15:18:32;25.05;;;18.95;;
38085;SDS011;23896;50.678;10.924;2023-05-20T15:20:59;25.88;;;20.50;;
38085;SDS011;23896;50.678;10.924;2023-05-20T15:23:32;24.20;;;20.23;;
38085;SDS011;23896;50.678;10.924;2023-05-20T15:29:34;24.08;;;19.52;;
38085;SDS011;23896;50.678;10.924;2023-05-20T15:35:27;22.93;;;19.73;;
38085;SDS011;23896;50.678;10.924;2023-05-20T18:07:49;23.75;;;18.58;;
38085;SDS011;23896;50.678;10.924;2023-05-20T18:10:51;26.10;;;19.15;;
38085;SDS011;23896;50.678;10.924;2023-05-20T18:13:40;23.83;;;19.20;;
38085;SDS011;23896;50.678;10.924;2023-05-20T18:16:29;23.00;;;18.83;;
38085;SDS011;23896;50.678;10.924;2023-05-20T18:22:11;25.15;;;17.83;;
38085;SDS011;23896;50.678;10.924;2023-05-20T18:25:31;23.30;;;17.83;;
38085;SDS011;23896;50.678;10.924;2023-05-20T18:31:33;22.27;;;18.25;;
38085;SDS011;23896;50.678;10.924;2023-05-20T18:34:08;23.15;;;20.05;;
38085;SDS011;23896;50.678;10.924;2023-05-20T18:52:25;23.10;;;19.00;;
38085;SDS011;23896;50.678;10.924;2023-05-20T18:54:56;23.88;;;18.90;;
38085;SDS011;23896;50.678;10.924;2023-05-20T18:57:42;23.00;;;18.00;;
38085;SDS011;23896;50.678;10.924;2023-05-20T19:06:17;22.08;;;18.60;;
38085;SDS011;23896;50.678;10.924;2023-05-20T19:09:06;23.98;;;18.88;;
38085;SDS011;23896;50.678;10.924;2023-05-20T19:26:54;22.95;;;18.95;;
38085;SDS011;23896;50.678;10.924;2023-05-20T19:32:20;23.90;;;17.98;;
38085;SDS011;23896;50.678;10.924;2023-05-20T19:35:00;21.92;;;17.83;;
38085;SDS011;23896;50.678;10.924;2023-05-20T19:37:37;21.67;;;17.20;;
38085;SDS011;23896;50.678;10.924;2023-05-20T19:40:16;25.37;;;19.07;;
38085;SDS011;23896;50.678;10.924;2023-05-20T19:43:20;21.92;;;18.63;;
38085;SDS011;23896;50.678;10.924;2023-05-20T19:46:59;22.10;;;18.00;;
38085;SDS011;23896;50.678;10.924;2023-05-20T19:49:33;22.60;;;18.13;;
38085;SDS011;23896;50.678;10.924;2023-05-20T19:52:18;21.98;;;17.80;;
38085;SDS011;23896;50.678;10.924;2023-05-20T19:54:48;20.52;;;18.10;;
38085;SDS011;23896;50.678;10.924;2023-05-20T19:57:26;21.55;;;17.42;;
38085;SDS011;23896;50.678;10.924;2023-05-20T20:06:03;30.52;;;17.42;;
38085;SDS011;23896;50.678;10.924;2023-05-20T20:08:39;19.38;;;17.20;;
38085;SDS011;23896;50.678;10.924;2023-05-20T20:26:36;19.08;;;17.08;;
38085;SDS011;23896;50.678;10.924;2023-05-20T20:29:10;23.58;;;18.35;;
38085;SDS011;23896;50.678;10.924;2023-05-20T20:31:45;21.63;;;17.05;;
38085;SDS011;23896;50.678;10.924;2023-05-20T20:34:23;24.55;;;17.55;;
38085;SDS011;23896;50.678;10.924;2023-05-20T20:43:08;24.02;;;19.40;;
38085;SDS011;23896;50.678;10.924;2023-05-20T20:45:53;22.67;;;18.13;;
38085;SDS011;23896;50.678;10.924;2023-05-20T20:58:03;24.20;;;18.60;;
38085;SDS011;23896;50.678;10.924;2023-05-20T21:00:34;23.08;;;17.63;;
38085;SDS011;23896;50.678;10.924;2023-05-20T21:03:05;23.58;;;18.48;;
38085;SDS011;23896;50.678;10.924;2023-05-20T21:05:35;22.55;;;18.30;;
38085;SDS011;23896;50.678;10.924;2023-05-20T21:08:03;25.10;;;18.13;;
38085;SDS011;23896;50.678;10.924;2023-05-20T21:16:31;23.55;;;17.83;;
38085;SDS011;23896;50.678;10.924;2023-05-20T21:18:58;23.33;;;18.67;;
38085;SDS011;23896;50.678;10.924;2023-05-20T21:21:25;24.60;;;18.20;;
38085;SDS011;23896;50.678;10.924;2023-05-20T21:26:57;22.60;;;18.65;;
38085;SDS011;23896;50.678;10.924;2023-05-20T21:29:24;25.23;;;19.73;;
38085;SDS011;23896;50.678;10.924;2023-05-20T21:31:50;25.15;;;17.20;;
38085;SDS011;23896;50.678;10.924;2023-05-20T21:34:16;20.42;;;17.73;;
38085;SDS011;23896;50.678;10.924;2023-05-20T21:36:49;21.42;;;17.92;;
38085;SDS011;23896;50.678;10.924;2023-05-20T21:39:15;24.08;;;18.98;;
38085;SDS011;23896;50.678;10.924;2023-05-20T21:41:41;22.70;;;18.00;;
38085;SDS011;23896;50.678;10.924;2023-05-20T21:44:07;23.60;;;18.33;;
38085;SDS011;23896;50.678;10.924;2023-05-20T21:49:38;21.77;;;18.85;;
38085;SDS011;23896;50.678;10.924;2023-05-20T21:52:04;22.02;;;18.35;;
38085;SDS011;23896;50.678;10.924;2023-05-20T21:54:34;24.88;;;19.17;;
38085;SDS011;23896;50.678;10.924;2023-05-20T21:57:02;25.80;;;19.73;;
38085;SDS011;23896;50.678;10.924;2023-05-20T22:05:41;23.50;;;19.10;;
38085;SDS011;23896;50.678;10.924;2023-05-20T22:08:12;22.38;;;18.70;;
38085;SDS011;23896;50.678;10.924;2023-05-20T22:10:56;21.45;;;17.63;;
38085;SDS011;23896;50.678;10.924;2023-05-20T22:16:17;23.88;;;18.52;;
38085;SDS011;23896;50.678;10.924;2023-05-20T22:19:11;30.50;;;18.70;;
38085;SDS011;23896;50.678;10.924;2023-05-20T22:21:46;23.08;;;18.23;;
38085;SDS011;23896;50.678;10.924;2023-05-20T22:24:15;24.13;;;18.35;;
38085;SDS011;23896;50.678;10.924;2023-05-20T22:29:50;23.10;;;20.40;;
38085;SDS011;23896;50.678;10.924;2023-05-20T22:32:34;25.73;;;20.53;;
38085;SDS011;23896;50.678;10.924;2023-05-20T22:38:04;23.33;;;20.00;;
38085;SDS011;23896;50.678;10.924;2023-05-20T22:40:31;24.58;;;18.85;;
38085;SDS011;23896;50.678;10.924;2023-05-20T22:42:57;26.48;;;20.30;;
38085;SDS011;23896;50.678;10.924;2023-05-20T22:45:24;22.55;;;19.10;;
38085;SDS011;23896;50.678;10.924;2023-05-20T22:48:00;22.67;;;18.98;;
38085;SDS011;23896;50.678;10.924;2023-05-20T22:50:27;23.67;;;19.10;;
38085;SDS011;23896;50.678;10.924;2023-05-20T22:52:54;24.33;;;18.83;;
38085;SDS011;23896;50.678;10.924;2023-05-20T22:55:30;22.23;;;18.83;;
38085;SDS011;23896;50.678;10.924;2023-05-20T22:58:08;24.05;;;19.50;;
38085;SDS011;23896;50.678;10.924;2023-05-20T23:00:34;24.40;;;19.23;;
38085;SDS011;23896;50.678;10.924;2023-05-20T23:03:03;24.88;;;18.50;;
38085;SDS011;23896;50.678;10.924;2023-05-20T23:05:30;25.48;;;20.30;;
38085;SDS011;23896;50.678;10.924;2023-05-20T23:08:00;26.05;;;21.00;;
38085;SDS011;23896;50.678;10.924;2023-05-20T23:10:29;26.30;;;19.85;;
38085;SDS011;23896;50.678;10.924;2023-05-20T23:12:55;24.58;;;19.75;;
38085;SDS011;23896;50.678;10.924;2023-05-20T23:18:13;24.20;;;18.45;;
38085;SDS011;23896;50.678;10.924;2023-05-20T23:20:39;23.90;;;18.58;;
38085;SDS011;23896;50.678;10.924;2023-05-20T23:23:09;22.10;;;16.73;;
38085;SDS011;23896;50.678;10.924;2023-05-20T23:25:42;22.85;;;18.10;;
38085;SDS011;23896;50.678;10.924;2023-05-20T23:28:09;24.27;;;18.60;;
38085;SDS011;23896;50.678;10.924;2023-05-20T23:30:35;22.30;;;18.77;;
38085;SDS011;23896;50.678;10.924;2023-05-20T23:33:01;23.35;;;18.30;;
38085;SDS011;23896;50.678;10.924;2023-05-20T23:35:37;25.85;;;19.70;;
38085;SDS011;23896;50.678;10.924;2023-05-20T23:38:03;25.88;;;19.35;;
38085;SDS011;23896;50.678;10.924;2023-05-20T23:40:29;23.92;;;19.75;;
38085;SDS011;23896;50.678;10.924;2023-05-20T23:42:56;24.20;;;18.98;;
38085;SDS011;23896;50.678;10.924;2023-05-20T23:45:25;27.90;;;19.67;;
38085;SDS011;23896;50.678;10.924;2023-05-20T23:47:52;22.10;;;18.15;;
38085;SDS011;23896;50.678;10.924;2023-05-20T23:50:19;19.88;;;17.67;;
38085;SDS011;23896;50.678;10.924;2023-05-20T23:52:46;20.50;;;17.42;;
38085;SDS011;23896;50.678;10.924;2023-05-20T23:55:16;19.85;;;17.55;;
38085;SDS011;23896;50.678;10.924;2023-05-20T23:57:42;20.40;;;18.17;;
